Time;durP1;ratioP1;P1;durP2;ratioP2;P2;SDS_P1;SDS_P2;PMS_P1;PMS_P2;Temp;Humidity;BMP_temperature;BMP_pressure;BME280_temperature;BME280_humidity;BME280_pressure;Samples;Min_cycle;Max_cycle;Signal;HPM_P1;HPM_P2
2023/03/18 00:01:16;;;;;;;2.50;1.63;;;10.30;99.90;;;;;;5031441;28;20475;-72
2023/03/18 00:03:42;;;;;;;2.90;1.43;;;10.40;99.90;;;;;;5022793;28;20453;-72
2023/03/18 00:06:17;;;;;;;1.40;1.23;;;10.50;99.90;;;;;;5031602;28;20232;-72
2023/03/18 00:08:45;;;;;;;31.77;17.20;;;10.50;99.90;;;;;;5029901;28;20215;-73
2023/03/18 00:11:12;;;;;;;11.80;6.90;;;10.60;99.90;;;;;;5031385;28;20448;-72
2023/03/18 00:13:40;;;;;;;7.57;5.70;;;10.60;99.90;;;;;;5014683;28;20425;-73
2023/03/18 00:16:06;;;;;;;6.43;1.60;;;10.60;99.90;;;;;;5025758;28;20417;-71
2023/03/18 00:18:33;;;;;;;9.63;2.23;;;10.60;99.90;;;;;;5021036;28;20463;-71
2023/03/18 00:20:59;;;;;;;2.00;1.53;;;10.60;99.90;;;;;;5030915;28;20599;-73
2023/03/18 00:23:26;;;;;;;2.53;1.30;;;10.60;99.90;;;;;;5030721;28;20420;-72
2023/03/18 00:25:55;;;;;;;2.80;1.03;;;10.50;99.90;;;;;;5030957;28;20420;-72
2023/03/18 00:28:21;;;;;;;1.87;1.23;;;10.50;99.90;;;;;;5030343;28;21063;-76
2023/03/18 00:30:48;;;;;;;6.13;1.43;;;10.40;99.90;;;;;;5029011;28;20929;-73
2023/03/18 00:33:14;;;;;;;2.67;1.50;;;10.30;99.90;;;;;;5031131;28;20769;-72
2023/03/18 00:35:40;;;;;;;4.70;1.90;;;10.30;99.90;;;;;;5030758;28;20456;-74
2023/03/18 00:38:07;;;;;;;3.10;1.63;;;10.20;99.90;;;;;;5030948;28;20516;-73
2023/03/18 00:40:52;;;;;;;3.53;1.60;;;10.20;99.90;;;;;;5030600;28;20179;-72
2023/03/18 00:43:21;;;;;;;1.43;1.30;;;10.10;99.90;;;;;;5023579;28;20417;-74
2023/03/18 00:45:49;;;;;;;2.30;1.20;;;10.10;99.90;;;;;;5030312;28;20408;-70
2023/03/18 00:48:16;;;;;;;1.90;1.03;;;10.00;99.90;;;;;;5031071;28;20420;-73
2023/03/18 00:50:43;;;;;;;4.77;1.50;;;10.00;99.90;;;;;;5021046;28;20432;-71
2023/03/18 00:53:10;;;;;;;1.70;1.60;;;10.10;99.90;;;;;;5024794;28;20417;-73
2023/03/18 00:55:36;;;;;;;3.53;1.23;;;10.10;99.90;;;;;;5028659;28;20758;-73
2023/03/18 00:58:01;;;;;;;2.90;1.20;;;10.20;99.90;;;;;;5028532;28;20459;-73
2023/03/18 01:00:27;;;;;;;2.20;1.30;;;10.30;99.90;;;;;;5030487;28;20178;-72
2023/03/18 01:02:53;;;;;;;1.57;1.10;;;10.40;99.90;;;;;;5030368;28;20265;-71
2023/03/18 01:05:19;;;;;;;4.90;1.50;;;10.40;99.90;;;;;;5030813;28;20542;-72
2023/03/18 01:07:45;;;;;;;2.90;1.20;;;10.50;99.90;;;;;;5022610;28;20517;-72
2023/03/18 01:10:12;;;;;;;2.23;1.63;;;10.50;99.90;;;;;;5030739;28;20424;-72
2023/03/18 01:12:37;;;;;;;1.97;1.00;;;10.60;99.90;;;;;;5012904;28;20206;-72
2023/03/18 01:15:05;;;;;;;1.90;1.40;;;10.70;99.90;;;;;;5030540;28;21007;-75
2023/03/18 01:17:31;;;;;;;4.00;1.13;;;10.80;99.90;;;;;;5022474;28;20268;-72
2023/03/18 01:19:56;;;;;;;3.83;1.13;;;10.90;99.90;;;;;;5030476;28;20424;-72
2023/03/18 01:22:22;;;;;;;7.70;1.40;;;10.90;99.90;;;;;;5030399;28;20432;-73
2023/03/18 01:24:48;;;;;;;2.40;1.20;;;11.00;99.90;;;;;;5021980;28;20236;-73
2023/03/18 01:27:13;;;;;;;2.40;1.17;;;11.10;99.90;;;;;;5030720;28;20688;-73
2023/03/18 01:29:39;;;;;;;1.60;1.13;;;11.30;99.90;;;;;;5028854;28;20244;-72
2023/03/18 01:32:05;;;;;;;2.13;1.10;;;11.30;99.90;;;;;;5030046;28;20218;-73
2023/03/18 01:34:31;;;;;;;1.20;1.10;;;11.30;99.90;;;;;;5030053;28;20197;-72
2023/03/18 01:36:57;;;;;;;1.80;1.20;;;11.30;99.90;;;;;;5030186;28;20794;-74
2023/03/18 01:39:23;;;;;;;1.60;1.03;;;11.30;99.90;;;;;;5030388;28;20228;-75
2023/03/18 01:41:50;;;;;;;1.07;0.90;;;11.30;99.90;;;;;;5026754;28;20448;-73
2023/03/18 01:44:21;;;;;;;4.97;1.30;;;11.40;99.90;;;;;;5010996;28;20422;-73
2023/03/18 01:46:48;;;;;;;2.53;1.00;;;11.40;99.90;;;;;;5029126;28;20421;-73
2023/03/18 01:49:26;;;;;;;5.60;1.20;;;11.40;99.90;;;;;;5024287;28;20405;-72
2023/03/18 01:51:57;;;;;;;2.93;1.00;;;11.40;99.90;;;;;;5029408;28;20583;-72
2023/03/18 01:54:24;;;;;;;1.57;1.13;;;11.40;99.90;;;;;;5030326;28;20408;-72
2023/03/18 01:56:51;;;;;;;5.30;1.57;;;11.30;99.90;;;;;;5013750;28;20467;-72
2023/03/18 01:59:18;;;;;;;3.50;1.37;;;11.30;99.90;;;;;;5023901;28;20512;-72
2023/03/18 03:32:21;;;;;;;2.90;1.43;;;9.10;99.90;;;;;;5211243;22;20958;-69
2023/03/18 03:34:48;;;;;;;4.30;1.70;;;9.00;99.90;;;;;;5026049;28;20867;-72
2023/03/18 03:37:13;;;;;;;2.20;1.53;;;9.00;99.90;;;;;;5025693;28;20214;-71
2023/03/18 03:39:40;;;;;;;3.73;1.23;;;8.90;99.90;;;;;;5030009;28;20993;-70
2023/03/18 03:42:06;;;;;;;4.37;1.53;;;8.80;99.90;;;;;;5031562;28;20452;-71
2023/03/18 03:44:31;;;;;;;4.03;1.67;;;8.80;99.90;;;;;;5023905;28;20198;-71
2023/03/18 03:46:57;;;;;;;4.60;1.77;;;8.70;99.90;;;;;;5022735;28;20263;-70
2023/03/18 03:49:23;;;;;;;2.00;1.70;;;8.60;99.90;;;;;;5031673;28;20216;-73
2023/03/18 03:51:48;;;;;;;1.60;1.50;;;8.60;99.90;;;;;;5029144;28;20426;-72
2023/03/18 03:54:14;;;;;;;3.53;1.30;;;8.60;99.90;;;;;;5017503;28;20193;-72
2023/03/18 03:56:41;;;;;;;2.20;1.60;;;8.50;99.90;;;;;;5022915;28;20189;-72
2023/03/18 03:59:06;;;;;;;8.80;1.90;;;8.50;99.90;;;;;;5031460;28;20228;-71
2023/03/18 04:01:33;;;;;;;6.97;1.80;;;8.40;99.90;;;;;;5015087;28;20949;-71
2023/03/18 04:03:59;;;;;;;2.57;1.27;;;8.40;99.90;;;;;;5030519;28;20185;-72
2023/03/18 04:06:25;;;;;;;3.23;1.87;;;8.30;99.90;;;;;;5031309;28;20523;-71
2023/03/18 04:08:51;;;;;;;1.80;1.10;;;8.30;99.90;;;;;;5020884;28;20572;-72
2023/03/18 04:11:16;;;;;;;4.03;1.77;;;8.20;99.90;;;;;;5025274;28;20209;-72
2023/03/18 04:13:42;;;;;;;2.20;1.77;;;8.20;99.90;;;;;;5030407;28;20577;-72
2023/03/18 04:16:08;;;;;;;2.90;1.73;;;8.20;99.90;;;;;;5022052;28;20189;-73
2023/03/18 04:18:33;;;;;;;3.10;1.20;;;8.10;99.90;;;;;;5031100;28;20209;-73
2023/03/18 04:20:59;;;;;;;2.00;1.20;;;8.00;99.90;;;;;;5030403;28;20951;-72
2023/03/18 04:23:26;;;;;;;1.70;1.60;;;8.00;99.90;;;;;;5022610;28;20236;-74
2023/03/18 04:25:52;;;;;;;3.40;1.53;;;7.90;99.90;;;;;;5012542;28;20621;-72
2023/03/18 04:28:17;;;;;;;4.43;1.70;;;7.90;99.90;;;;;;5016983;28;20509;-72
2023/03/18 04:30:43;;;;;;;1.83;1.40;;;7.90;99.90;;;;;;5030017;28;20459;-72
2023/03/18 04:33:08;;;;;;;2.60;1.60;;;7.90;99.90;;;;;;5030893;28;20259;-72
2023/03/18 04:35:35;;;;;;;1.20;1.10;;;7.80;99.90;;;;;;5029582;28;20232;-72
2023/03/18 04:38:00;;;;;;;3.00;1.80;;;7.80;99.90;;;;;;5020652;28;20216;-73
2023/03/18 04:40:26;;;;;;;4.70;1.37;;;7.70;99.90;;;;;;5030511;28;20427;-72
2023/03/18 04:42:52;;;;;;;7.33;1.30;;;7.70;99.90;;;;;;5021985;28;20186;-72
2023/03/18 04:45:18;;;;;;;3.37;1.73;;;7.60;99.90;;;;;;5025435;28;20252;-72
2023/03/18 04:47:44;;;;;;;2.90;1.30;;;7.60;99.90;;;;;;5027513;28;20533;-74
2023/03/18 04:50:12;;;;;;;1.60;1.50;;;7.50;99.90;;;;;;5030481;28;20492;-72
2023/03/18 04:52:39;;;;;;;1.57;1.30;;;7.40;99.90;;;;;;5022397;28;20290;-72
2023/03/18 04:55:05;;;;;;;2.13;1.30;;;7.40;99.90;;;;;;5007684;28;20456;-74
2023/03/18 04:57:31;;;;;;;8.07;1.70;;;7.30;99.90;;;;;;5020272;28;20960;-72
2023/03/18 04:59:57;;;;;;;1.30;1.03;;;7.30;99.90;;;;;;5021844;28;20443;-72
2023/03/18 05:02:23;;;;;;;3.23;1.77;;;7.20;99.90;;;;;;5030296;28;20203;-71
2023/03/18 05:04:49;;;;;;;8.13;1.47;;;7.20;99.90;;;;;;5029790;28;20180;-72
2023/03/18 05:07:15;;;;;;;4.30;1.37;;;7.10;99.90;;;;;;5025820;28;20443;-72
2023/03/18 05:09:42;;;;;;;3.10;1.53;;;7.10;99.90;;;;;;5018722;28;20225;-72
2023/03/18 05:12:14;;;;;;;5.40;1.43;;;7.10;99.90;;;;;;5021156;28;20451;-73
2023/03/18 05:14:42;;;;;;;2.70;1.53;;;7.00;99.90;;;;;;5028699;28;20485;-70
2023/03/18 05:17:14;;;;;;;6.67;1.60;;;6.90;99.90;;;;;;5015044;28;20934;-72
2023/03/18 05:19:47;;;;;;;1.63;1.53;;;6.80;99.90;;;;;;5023730;28;20426;-71
2023/03/18 05:22:15;;;;;;;2.63;1.47;;;6.70;99.90;;;;;;5003914;28;20448;-71
2023/03/18 05:24:44;;;;;;;3.10;1.77;;;6.80;99.90;;;;;;5018616;28;20414;-69
2023/03/18 05:27:11;;;;;;;9.00;1.47;;;6.70;99.90;;;;;;5007455;28;20441;-71
2023/03/18 05:29:39;;;;;;;3.17;1.50;;;6.70;99.90;;;;;;5030297;28;20490;-72
2023/03/18 05:32:08;;;;;;;3.70;2.17;;;6.70;99.90;;;;;;5026392;28;20535;-72
2023/03/18 05:34:38;;;;;;;1.73;1.63;;;6.70;99.90;;;;;;5018050;28;20530;-72
2023/03/18 05:37:05;;;;;;;1.50;1.40;;;6.70;99.90;;;;;;5029484;28;20440;-72
2023/03/18 05:39:31;;;;;;;4.87;1.60;;;6.60;99.90;;;;;;5030237;28;20797;-71
2023/03/18 05:41:58;;;;;;;3.33;1.70;;;6.60;99.90;;;;;;5021099;28;20875;-73
2023/03/18 05:44:24;;;;;;;3.00;1.90;;;6.60;99.90;;;;;;5025548;28;20430;-75
2023/03/18 05:46:51;;;;;;;3.77;2.60;;;6.60;99.90;;;;;;5024817;28;20489;-70
2023/03/18 05:49:17;;;;;;;2.20;1.90;;;6.50;99.90;;;;;;5027477;28;20428;-72
2023/03/18 05:51:43;;;;;;;2.47;1.63;;;6.50;99.90;;;;;;5017502;28;20494;-71
2023/03/18 05:54:09;;;;;;;1.97;1.10;;;6.50;99.90;;;;;;5021337;28;20530;-70
2023/03/18 05:56:35;;;;;;;2.07;1.47;;;6.60;99.90;;;;;;5020429;28;20189;-71
2023/03/18 05:59:01;;;;;;;1.77;1.67;;;6.60;99.90;;;;;;5025230;28;20689;-73
2023/03/18 06:01:26;;;;;;;1.77;1.30;;;6.60;99.90;;;;;;5033574;28;20210;-71
2023/03/18 06:03:52;;;;;;;5.20;1.73;;;6.60;99.90;;;;;;5033048;28;20275;-71
2023/03/18 06:06:18;;;;;;;3.67;1.63;;;6.60;99.90;;;;;;5033702;28;20191;-72
2023/03/18 06:08:45;;;;;;;4.20;1.90;;;6.60;99.90;;;;;;5025094;28;20494;-71
2023/03/18 06:11:11;;;;;;;2.07;1.50;;;6.70;99.90;;;;;;5022086;28;20209;-71
2023/03/18 06:13:37;;;;;;;7.00;1.80;;;6.80;99.90;;;;;;5022156;28;20427;-72
2023/03/18 06:16:03;;;;;;;6.80;1.57;;;6.80;99.90;;;;;;5022178;28;20437;-73
2023/03/18 06:18:29;;;;;;;3.90;1.87;;;6.90;99.90;;;;;;5020483;28;20465;-72
2023/03/18 06:20:55;;;;;;;3.13;1.37;;;7.00;99.90;;;;;;5015090;28;20817;-72
2023/03/18 06:23:21;;;;;;;2.47;1.33;;;7.10;99.90;;;;;;5014127;28;20410;-71
2023/03/18 06:25:48;;;;;;;2.53;1.70;;;7.20;99.90;;;;;;5012323;28;20189;-71
2023/03/18 06:28:14;;;;;;;2.80;1.73;;;7.30;99.90;;;;;;5013863;28;20422;-72
2023/03/18 06:30:40;;;;;;;5.40;2.10;;;7.40;99.90;;;;;;5029284;28;20835;-72
2023/03/18 06:33:06;;;;;;;4.27;1.80;;;7.60;99.90;;;;;;5022118;28;20198;-72
2023/03/18 06:35:31;;;;;;;5.07;2.53;;;8.10;99.90;;;;;;5013808;28;20498;-72
2023/03/18 06:37:57;;;;;;;2.13;1.70;;;8.40;99.90;;;;;;5021837;28;20471;-72
2023/03/18 06:40:23;;;;;;;1.80;1.50;;;8.70;99.90;;;;;;5013595;28;20201;-77
2023/03/18 06:42:49;;;;;;;2.47;1.77;;;9.10;99.90;;;;;;5013347;28;20183;-72
2023/03/18 06:45:16;;;;;;;6.13;2.27;;;9.50;99.90;;;;;;5013760;28;21019;-72
2023/03/18 06:47:42;;;;;;;5.40;2.20;;;9.60;99.90;;;;;;5013270;28;21093;-75
2023/03/18 06:50:09;;;;;;;3.87;2.43;;;9.80;99.90;;;;;;5016544;28;20464;-72
2023/03/18 06:52:35;;;;;;;2.70;2.50;;;9.90;99.90;;;;;;5026149;28;20568;-72
2023/03/18 06:55:01;;;;;;;5.10;2.90;;;10.10;99.90;;;;;;5011882;28;20429;-73
2023/03/18 06:57:27;;;;;;;2.73;2.23;;;10.50;99.90;;;;;;5027200;28;20496;-72
2023/03/18 06:59:53;;;;;;;5.90;2.33;;;11.10;99.90;;;;;;5015387;28;20469;-73
2023/03/18 07:02:22;;;;;;;4.37;2.73;;;11.70;99.90;;;;;;5012953;28;20210;-71
2023/03/18 07:04:48;;;;;;;7.20;3.63;;;12.30;99.90;;;;;;5021142;28;20486;-73
2023/03/18 07:07:13;;;;;;;2.80;2.60;;;13.30;99.90;;;;;;5013367;28;20430;-73
2023/03/18 07:09:39;;;;;;;3.27;2.37;;;14.70;99.90;;;;;;5013125;28;20429;-73
2023/03/18 07:12:05;;;;;;;4.43;2.37;;;15.60;99.90;;;;;;5012822;28;20587;-73
2023/03/18 07:14:31;;;;;;;7.97;2.10;;;17.00;99.90;;;;;;5018747;28;20194;-74
2023/03/18 07:16:56;;;;;;;5.73;2.50;;;18.00;99.90;;;;;;5031338;28;20520;-73
2023/03/18 07:19:22;;;;;;;3.00;2.00;;;18.40;99.90;;;;;;5021640;28;20191;-72
2023/03/18 07:21:48;;;;;;;5.53;2.40;;;18.40;99.90;;;;;;5022150;28;20202;-74
2023/03/18 07:24:14;;;;;;;7.50;2.67;;;18.30;99.90;;;;;;5013358;28;20187;-74
2023/03/18 07:26:40;;;;;;;2.50;2.13;;;18.30;99.90;;;;;;5013071;28;20194;-74
2023/03/18 07:29:06;;;;;;;7.83;2.40;;;18.50;99.90;;;;;;5011255;28;20218;-73
2023/03/18 07:31:31;;;;;;;6.67;2.80;;;18.70;99.90;;;;;;5020069;28;20453;-72
2023/03/18 07:33:57;;;;;;;3.27;2.80;;;18.60;99.90;;;;;;5020253;28;20240;-71
2023/03/18 07:36:24;;;;;;;2.97;2.47;;;18.40;99.90;;;;;;5012436;28;20255;-71
2023/03/18 07:38:49;;;;;;;10.10;6.87;;;18.60;99.90;;;;;;5012076;28;20205;-72
2023/03/18 07:41:15;;;;;;;8.70;3.70;;;18.80;99.90;;;;;;5012297;28;20810;-71
2023/03/18 07:43:42;;;;;;;7.10;1.70;;;18.70;99.90;;;;;;5011964;28;20194;-70
2023/03/18 07:46:08;;;;;;;8.20;1.60;;;18.90;99.90;;;;;;5012186;28;20717;-71
2023/03/18 07:48:33;;;;;;;1.83;1.50;;;19.20;99.90;;;;;;5012317;28;20425;-71
2023/03/18 07:51:00;;;;;;;5.97;1.80;;;19.30;99.90;;;;;;5020113;28;20695;-74
2023/03/18 07:53:26;;;;;;;5.97;2.00;;;19.30;99.90;;;;;;5011961;28;20266;-70
2023/03/18 07:55:52;;;;;;;5.00;1.90;;;19.50;99.90;;;;;;5012436;28;20785;-69
2023/03/18 07:58:18;;;;;;;4.67;2.27;;;19.70;99.90;;;;;;5028031;28;20484;-71
2023/03/18 08:00:43;;;;;;;3.03;1.70;;;19.70;99.90;;;;;;5011687;28;20449;-73
2023/03/18 08:03:11;;;;;;;9.93;3.57;;;19.80;99.90;;;;;;5011619;28;20214;-71
2023/03/18 08:05:37;;;;;;;9.50;3.00;;;19.80;99.90;;;;;;5011559;28;20640;-70
2023/03/18 08:08:03;;;;;;;3.90;2.30;;;20.10;99.30;;;;;;5011737;28;20437;-71
2023/03/18 08:10:29;;;;;;;4.03;1.87;;;20.00;99.00;;;;;;5011829;28;20854;-71
2023/03/18 08:12:54;;;;;;;4.33;3.37;;;20.20;99.00;;;;;;5019290;28;20748;-70
2023/03/18 08:15:21;;;;;;;7.27;4.90;;;20.70;97.30;;;;;;5011488;28;20428;-74
2023/03/18 08:17:46;;;;;;;3.20;2.80;;;20.60;97.20;;;;;;5011715;28;20691;-72
2023/03/18 08:20:12;;;;;;;7.23;1.83;;;20.60;96.30;;;;;;5011025;28;20512;-71
2023/03/18 08:22:38;;;;;;;5.43;3.23;;;20.50;95.80;;;;;;5018626;28;20214;-71
2023/03/18 08:25:04;;;;;;;3.07;2.20;;;20.70;96.80;;;;;;5011630;28;20191;-72
2023/03/18 08:27:29;;;;;;;2.50;1.57;;;21.10;96.30;;;;;;5011868;28;20209;-72
2023/03/18 08:29:55;;;;;;;5.50;2.30;;;21.40;95.80;;;;;;5019601;28;20536;-74
2023/03/18 08:32:21;;;;;;;9.83;4.37;;;21.70;95.90;;;;;;5013837;28;20224;-70
2023/03/18 08:34:46;;;;;;;4.53;3.57;;;21.90;93.50;;;;;;5031392;28;20432;-71
2023/03/18 08:37:13;;;;;;;4.67;2.77;;;21.80;93.60;;;;;;5014985;28;20186;-71
2023/03/18 08:39:40;;;;;;;3.23;1.30;;;21.90;94.70;;;;;;5012672;28;20206;-71
2023/03/18 08:42:06;;;;;;;4.00;2.27;;;21.60;90.90;;;;;;5022906;28;20456;-72
2023/03/18 08:44:32;;;;;;;2.50;1.23;;;21.80;91.50;;;;;;5012459;28;21000;-75
2023/03/18 08:46:57;;;;;;;7.00;2.87;;;21.90;89.40;;;;;;5011908;28;20707;-73
2023/03/18 08:49:24;;;;;;;3.97;1.37;;;21.90;89.70;;;;;;5013175;28;20479;-74
2023/03/18 08:51:50;;;;;;;2.07;1.10;;;22.00;90.80;;;;;;5012098;28;20217;-73
2023/03/18 08:54:16;;;;;;;4.67;1.30;;;22.50;90.40;;;;;;5011536;28;20480;-75
2023/03/18 08:56:41;;;;;;;4.53;1.63;;;22.40;86.20;;;;;;5011633;28;20441;-73
2023/03/18 08:59:08;;;;;;;5.37;1.40;;;22.60;89.70;;;;;;5016387;28;20686;-73
2023/03/18 09:01:33;;;;;;;1.90;1.30;;;22.60;88.20;;;;;;5011136;28;20687;-73
2023/03/18 09:03:59;;;;;;;4.40;4.00;;;22.60;87.30;;;;;;5018805;28;20495;-74
2023/03/18 09:06:26;;;;;;;4.10;1.90;;;22.70;85.90;;;;;;5015731;28;20186;-73
2023/03/18 09:08:52;;;;;;;4.67;1.60;;;22.60;89.10;;;;;;5022652;28;20187;-73
2023/03/18 09:11:17;;;;;;;4.53;2.40;;;22.70;85.30;;;;;;5010739;28;20462;-73
2023/03/18 09:13:43;;;;;;;5.63;2.53;;;22.70;85.80;;;;;;5010680;28;20186;-73
2023/03/18 09:16:09;;;;;;;3.70;1.80;;;22.80;85.60;;;;;;5010984;28;20197;-73
2023/03/18 09:18:35;;;;;;;5.63;1.70;;;22.80;85.30;;;;;;5014886;28;20202;-73
2023/03/18 09:21:02;;;;;;;7.43;1.50;;;22.80;85.60;;;;;;5015637;28;20453;-73
2023/03/18 09:23:28;;;;;;;4.17;1.77;;;23.00;84.40;;;;;;5022729;28;20437;-73
2023/03/18 09:25:53;;;;;;;4.13;1.60;;;23.10;83.80;;;;;;5031130;28;20439;-72
2023/03/18 09:28:19;;;;;;;3.00;2.10;;;23.30;82.70;;;;;;5025471;28;20182;-73
2023/03/18 09:30:45;;;;;;;5.37;1.60;;;23.10;80.50;;;;;;5021300;28;20237;-72
2023/03/18 09:33:11;;;;;;;7.43;1.97;;;23.30;83.20;;;;;;5023644;28;20457;-74
2023/03/18 09:35:37;;;;;;;1.83;1.73;;;23.60;82.60;;;;;;5014528;28;20178;-74
2023/03/18 09:38:03;;;;;;;3.40;1.90;;;23.40;79.80;;;;;;5022736;28;20589;-73
2023/03/18 09:40:31;;;;;;;2.47;1.50;;;23.50;81.30;;;;;;5014391;28;20512;-73
2023/03/18 09:43:34;;;;;;;4.47;2.10;;;23.50;79.70;;;;;;5013508;28;20993;-73
2023/03/18 09:46:09;;;;;;;4.67;1.70;;;23.30;78.70;;;;;;5015318;28;20532;-73
2023/03/18 09:48:40;;;;;;;2.70;1.20;;;23.10;78.90;;;;;;5011364;28;20905;-73
2023/03/18 09:51:27;;;;;;;3.50;2.00;;;23.10;79.40;;;;;;5014047;28;20452;-72
2023/03/18 09:54:01;;;;;;;5.97;1.97;;;23.20;78.60;;;;;;5007328;28;20964;-73
2023/03/18 09:56:33;;;;;;;3.40;2.10;;;23.20;81.30;;;;;;5006029;28;20806;-73
2023/03/18 09:59:29;;;;;;;5.73;2.37;;;22.90;80.20;;;;;;5018828;28;20524;-73
2023/03/18 10:01:56;;;;;;;3.60;1.80;;;22.50;80.70;;;;;;5014808;28;20457;-72
2023/03/18 10:04:26;;;;;;;2.80;1.80;;;22.70;78.60;;;;;;5015924;28;20519;-72
2023/03/18 10:07:07;;;;;;;1.70;1.60;;;22.90;79.60;;;;;;5017941;28;20429;-72
2023/03/18 10:09:41;;;;;;;2.67;1.07;;;23.20;78.70;;;;;;5007426;28;20417;-72
2023/03/18 10:12:34;;;;;;;3.90;1.60;;;23.00;75.70;;;;;;5023019;28;20814;-75
2023/03/18 10:15:07;;;;;;;6.23;1.80;;;23.30;79.80;;;;;;5025819;28;21124;-73
2023/03/18 10:17:44;;;;;;;4.73;1.37;;;23.50;77.60;;;;;;5033677;28;20464;-72
2023/03/18 10:20:39;;;;;;;3.17;1.60;;;23.80;75.90;;;;;;5033476;28;20412;-73
2023/03/18 10:23:30;;;;;;;1.90;1.30;;;23.40;74.90;;;;;;5033066;28;20823;-73
2023/03/18 10:26:19;;;;;;;5.40;1.13;;;23.10;75.80;;;;;;5033044;28;20432;-71
2023/03/18 10:28:55;;;;;;;2.10;1.40;;;23.20;77.00;;;;;;5021684;28;20483;-73
2023/03/18 10:31:30;;;;;;;1.43;1.03;;;23.40;78.20;;;;;;5028595;28;20469;-75
2023/03/18 10:34:15;;;;;;;2.83;1.50;;;23.00;75.50;;;;;;5028163;28;20424;-73
2023/03/18 10:37:03;;;;;;;1.80;0.90;;;23.10;77.90;;;;;;5030804;28;20440;-75
2023/03/18 10:39:29;;;;;;;2.90;1.27;;;23.20;77.50;;;;;;5033455;28;20439;-72
2023/03/18 10:41:59;;;;;;;4.10;1.43;;;23.00;76.90;;;;;;5032781;28;20443;-73
2023/03/18 10:44:35;;;;;;;8.33;1.50;;;23.00;78.00;;;;;;5029906;28;20420;-73
2023/03/18 10:47:11;;;;;;;3.13;1.27;;;23.00;76.90;;;;;;5029936;28;20431;-72
2023/03/18 10:49:43;;;;;;;5.73;1.70;;;22.70;77.20;;;;;;5033230;28;20416;-74
2023/03/18 10:52:32;;;;;;;4.27;1.27;;;22.40;78.40;;;;;;5033082;28;20450;-72
2023/03/18 10:54:58;;;;;;;1.93;1.43;;;22.50;79.00;;;;;;5033148;28;20917;-74
2023/03/18 10:57:24;;;;;;;2.37;1.17;;;22.50;78.10;;;;;;5032864;28;20848;-72
2023/03/18 10:59:51;;;;;;;2.03;1.20;;;22.20;78.20;;;;;;5032924;28;20416;-72
2023/03/18 11:02:21;;;;;;;3.67;1.40;;;22.20;78.40;;;;;;5032609;28;20260;-75
2023/03/18 11:04:51;;;;;;;6.90;2.07;;;22.30;80.40;;;;;;5024738;28;20489;-74
2023/03/18 11:07:27;;;;;;;7.83;2.10;;;22.40;78.10;;;;;;5032867;28;20423;-74
2023/03/18 11:09:53;;;;;;;6.40;1.70;;;21.90;78.60;;;;;;5032856;28;20470;-73
2023/03/18 11:12:27;;;;;;;1.60;1.40;;;21.90;79.90;;;;;;5024544;28;20444;-73
2023/03/18 11:14:55;;;;;;;3.07;1.40;;;22.00;78.80;;;;;;5033658;28;20982;-72
2023/03/18 11:17:35;;;;;;;2.57;1.20;;;22.20;78.90;;;;;;5026212;28;20424;-73
2023/03/18 11:20:23;;;;;;;2.70;1.20;;;22.50;77.70;;;;;;5034285;28;20424;-72
2023/03/18 11:22:51;;;;;;;4.33;1.90;;;22.30;77.00;;;;;;5021542;28;20926;-72
2023/03/18 11:25:16;;;;;;;2.00;1.27;;;22.10;75.20;;;;;;5032827;28;20412;-73
2023/03/18 11:27:45;;;;;;;1.40;1.30;;;21.90;76.00;;;;;;5032507;28;20788;-74
2023/03/18 11:30:16;;;;;;;5.83;1.40;;;22.10;75.90;;;;;;5022954;28;20185;-76
2023/03/18 11:33:12;;;;;;;1.20;1.10;;;22.00;76.50;;;;;;5025891;28;20463;-75
2023/03/18 11:35:46;;;;;;;2.27;1.50;;;22.00;75.30;;;;;;5014264;28;20967;-75
2023/03/18 11:38:19;;;;;;;4.37;1.40;;;21.60;75.80;;;;;;5032052;28;20547;-74
2023/03/18 11:40:45;;;;;;;2.03;1.03;;;21.30;76.00;;;;;;5026065;28;20437;-73
2023/03/18 11:43:18;;;;;;;1.00;0.77;;;21.40;76.40;;;;;;5031739;28;20947;-74
2023/03/18 11:45:51;;;;;;;2.13;0.90;;;22.10;75.20;;;;;;5027178;28;20910;-74
2023/03/18 11:48:29;;;;;;;2.00;1.00;;;22.30;74.60;;;;;;5032072;28;20416;-75
2023/03/18 11:51:04;;;;;;;0.80;0.80;;;22.40;74.00;;;;;;5027285;28;20440;-74
2023/03/18 11:53:50;;;;;;;4.03;0.87;;;22.20;72.10;;;;;;5025027;28;21008;-74
2023/03/18 11:56:26;;;;;;;3.30;1.00;;;22.20;70.30;;;;;;5028000;28;20420;-73
2023/03/18 11:58:57;;;;;;;3.40;1.00;;;22.50;73.40;;;;;;5027803;28;20554;-74
2023/03/18 12:01:35;;;;;;;1.83;0.80;;;22.70;72.00;;;;;;5030679;28;20433;-71
2023/03/18 12:04:12;;;;;;;1.43;0.80;;;22.70;69.30;;;;;;5020049;28;20508;-74
2023/03/18 12:07:02;;;;;;;1.47;0.70;;;22.80;70.70;;;;;;5017956;28;20492;-75
2023/03/18 12:09:52;;;;;;;2.47;1.00;;;22.60;67.40;;;;;;5023675;28;20816;-74
2023/03/18 12:12:44;;;;;;;2.33;0.93;;;22.60;71.30;;;;;;5031325;28;20450;-72
2023/03/18 12:15:23;;;;;;;1.87;1.30;;;22.40;75.60;;;;;;5028409;28;20785;-74
2023/03/18 12:18:05;;;;;;;3.00;1.10;;;22.40;77.00;;;;;;5023008;28;20452;-75
2023/03/18 12:20:53;;;;;;;1.20;0.70;;;22.40;70.30;;;;;;5024323;28;20186;-73
2023/03/18 12:23:38;;;;;;;3.50;0.70;;;22.20;72.90;;;;;;5021762;28;20413;-74
2023/03/18 12:26:15;;;;;;;1.77;1.43;;;22.20;74.80;;;;;;5020760;28;20421;-73
2023/03/18 12:28:59;;;;;;;5.00;0.97;;;22.30;76.90;;;;;;5019906;28;20413;-74
2023/03/18 12:31:38;;;;;;;3.43;1.50;;;22.40;79.40;;;;;;5023246;28;20453;-72
2023/03/18 12:34:30;;;;;;;1.83;1.00;;;22.40;78.80;;;;;;5028896;28;20828;-73
2023/03/18 12:37:10;;;;;;;1.60;1.00;;;22.30;79.50;;;;;;5005148;28;20421;-73
2023/03/18 12:40:06;;;;;;;1.20;0.87;;;22.30;78.10;;;;;;5028216;28;20441;-73
2023/03/18 12:42:50;;;;;;;2.93;0.70;;;22.20;74.70;;;;;;5015127;28;20944;-73
2023/03/18 12:45:19;;;;;;;2.20;0.87;;;21.80;73.90;;;;;;5029196;28;20416;-77
2023/03/18 12:48:01;;;;;;;6.07;0.97;;;21.50;73.40;;;;;;5031225;28;20436;-73
2023/03/18 12:50:37;;;;;;;3.50;1.07;;;21.30;74.60;;;;;;5020320;28;20417;-73
2023/03/18 12:53:15;;;;;;;0.90;0.80;;;21.40;75.70;;;;;;5030747;28;20749;-73
2023/03/18 12:55:48;;;;;;;2.10;0.80;;;21.30;71.60;;;;;;5025146;28;20547;-75
2023/03/18 12:58:21;;;;;;;1.83;0.70;;;21.30;70.60;;;;;;5027842;28;20476;-72
2023/03/18 13:01:15;;;;;;;2.50;1.00;;;21.30;75.10;;;;;;5024006;28;20428;-74
2023/03/18 13:03:43;;;;;;;0.80;0.80;;;21.40;76.20;;;;;;5030603;28;20445;-75
2023/03/18 13:06:26;;;;;;;0.97;0.87;;;21.50;74.50;;;;;;5029936;28;20448;-75
2023/03/18 13:09:11;;;;;;;1.00;0.70;;;21.50;75.70;;;;;;5025324;28;20421;-75
2023/03/18 13:11:49;;;;;;;2.53;0.90;;;21.50;72.30;;;;;;5015730;28;20451;-74
2023/03/18 13:14:52;;;;;;;3.03;0.80;;;21.50;73.30;;;;;;5030381;28;20803;-73
2023/03/18 13:17:38;;;;;;;1.17;1.00;;;21.40;73.90;;;;;;5022516;28;20420;-74
2023/03/18 13:20:20;;;;;;;6.70;0.97;;;21.30;75.10;;;;;;5030638;28;20495;-73
2023/03/18 13:23:15;;;;;;;6.30;1.40;;;21.30;73.10;;;;;;5030212;28;20833;-73
2023/03/18 13:26:21;;;;;;;1.63;1.20;;;21.30;73.50;;;;;;5022413;28;20440;-74
2023/03/18 13:29:09;;;;;;;1.97;0.80;;;21.40;76.40;;;;;;5023615;28;20411;-73
2023/03/18 13:32:01;;;;;;;0.90;0.70;;;21.50;76.90;;;;;;5016101;28;20456;-76
2023/03/18 13:34:46;;;;;;;1.33;1.00;;;21.60;76.10;;;;;;5028782;28;20420;-74
2023/03/18 13:37:49;;;;;;;1.73;1.00;;;21.50;73.50;;;;;;5027727;28;20868;-74
2023/03/18 13:40:36;;;;;;;1.67;0.97;;;21.30;71.80;;;;;;5023012;28;20504;-74
2023/03/18 13:43:03;;;;;;;1.42;1.00;;;20.70;71.00;;;;;;5029036;28;20495;-74
2023/03/18 13:45:36;;;;;;;1.63;0.80;;;20.40;72.20;;;;;;5023429;28;20179;-74
2023/03/18 13:48:08;;;;;;;3.10;1.00;;;20.30;72.90;;;;;;5030469;28;20417;-73
2023/03/18 13:50:39;;;;;;;2.70;1.00;;;20.30;71.70;;;;;;5015475;28;20421;-73
2023/03/18 13:53:17;;;;;;;5.83;0.90;;;20.30;72.50;;;;;;5030195;28;20424;-73
2023/03/18 13:55:52;;;;;;;3.20;1.00;;;20.40;72.50;;;;;;5023578;28;20496;-74
2023/03/18 13:58:20;;;;;;;3.73;0.90;;;20.40;72.80;;;;;;5030425;28;21107;-74
2023/03/18 14:00:54;;;;;;;1.13;0.70;;;20.40;73.00;;;;;;5018857;28;20942;-74
2023/03/18 14:03:29;;;;;;;3.77;1.30;;;20.40;73.30;;;;;;5028074;28;20408;-73
2023/03/18 14:06:03;;;;;;;3.03;0.83;;;20.50;71.30;;;;;;5027616;28;20416;-74
2023/03/18 14:08:38;;;;;;;3.00;0.70;;;20.60;70.80;;;;;;5024412;28;20425;-74
2023/03/18 14:11:16;;;;;;;2.53;0.93;;;20.60;70.90;;;;;;5024377;28;20467;-74
2023/03/18 14:13:43;;;;;;;1.33;0.70;;;20.50;68.90;;;;;;5034715;28;20526;-74
2023/03/18 14:16:11;;;;;;;1.40;0.80;;;20.50;69.30;;;;;;5028716;28;20511;-74
2023/03/18 14:18:37;;;;;;;1.20;0.90;;;20.40;65.90;;;;;;5034356;28;20490;-74
2023/03/18 14:21:06;;;;;;;1.10;0.80;;;20.40;66.30;;;;;;5028080;28;20441;-73
2023/03/18 14:23:40;;;;;;;20.87;1.90;;;20.30;66.20;;;;;;5034030;28;20767;-74
2023/03/18 14:26:19;;;;;;;3.07;0.80;;;20.10;65.40;;;;;;5028621;28;20412;-73
2023/03/18 14:29:03;;;;;;;8.80;0.77;;;20.00;66.40;;;;;;5033154;28;20416;-74
2023/03/18 14:31:31;;;;;;;3.07;0.80;;;20.00;66.20;;;;;;5025957;28;20826;-73
2023/03/18 14:34:00;;;;;;;1.77;0.80;;;19.90;64.40;;;;;;5028072;28;20417;-73
2023/03/18 14:36:39;;;;;;;1.33;0.60;;;19.80;63.40;;;;;;5024370;28;20424;-76
2023/03/18 14:39:06;;;;;;;1.83;0.70;;;19.70;66.40;;;;;;5033456;28;20827;-73